createdAt,value
2022-11-01T00:01:48.338Z,22.20
2022-11-01T00:06:54.918Z,17.70
2022-11-01T00:17:06.389Z,22.50
2022-11-01T00:22:11.886Z,35.90
2022-11-01T00:27:17.742Z,36.38
2022-11-01T00:32:26.337Z,32.17
2022-11-01T00:37:33.867Z,29.90
2022-11-01T00:43:01.624Z,25.80
2022-11-01T00:48:07.461Z,37.50
2022-11-01T00:53:14.742Z,28.48
2022-11-01T00:58:20.694Z,32.00
2022-11-01T01:03:26.273Z,34.78
2022-11-01T01:08:32.076Z,29.77
2022-11-01T01:13:37.649Z,20.20
2022-11-01T01:18:44.147Z,21.25
2022-11-01T01:23:50.280Z,23.25
2022-11-01T01:28:58.655Z,29.70
2022-11-01T01:34:04.122Z,19.95
2022-11-01T01:44:51.637Z,33.53
2022-11-01T01:50:20.935Z,19.40
2022-11-01T01:55:45.724Z,27.13
2022-11-01T02:00:51.480Z,16.00
2022-11-01T02:11:03.980Z,20.25
2022-11-01T02:16:09.467Z,24.13
2022-11-01T02:21:29.733Z,15.60
2022-11-01T02:27:07.459Z,20.98
2022-11-01T02:32:32.697Z,17.85
2022-11-01T02:37:53.502Z,24.90
2022-11-01T02:43:11.639Z,13.68
2022-11-01T02:48:16.859Z,22.50
2022-11-01T02:53:22.353Z,11.93
2022-11-01T02:58:32.709Z,12.65
2022-11-01T03:03:38.396Z,14.40
2022-11-01T03:08:47.717Z,12.25
2022-11-01T03:14:02.273Z,12.40
2022-11-01T03:19:22.561Z,14.77
2022-11-01T03:24:30.496Z,14.63
2022-11-01T03:29:38.866Z,12.00
2022-11-01T03:34:44.824Z,8.25
2022-11-01T03:44:57.211Z,14.73
2022-11-01T03:50:35.468Z,11.85
2022-11-01T03:55:40.966Z,11.40
2022-11-01T04:00:48.047Z,10.00
2022-11-01T04:05:53.499Z,11.95
2022-11-01T04:10:58.898Z,12.90
2022-11-01T04:16:25.266Z,7.50
2022-11-01T04:21:32.171Z,8.95
2022-11-01T04:26:40.506Z,11.13
2022-11-01T04:31:52.546Z,9.88
2022-11-01T04:36:58.167Z,4.68
2022-11-01T04:42:03.396Z,14.10
2022-11-01T04:47:08.625Z,8.47
2022-11-01T04:52:16.979Z,8.03
2022-11-01T04:57:25.861Z,11.52
2022-11-01T05:02:33.154Z,8.85
2022-11-01T05:07:38.702Z,8.70
2022-11-01T05:12:46.016Z,5.40
2022-11-01T05:17:52.160Z,11.10
2022-11-01T05:28:10.226Z,9.18
2022-11-01T05:33:18.862Z,5.35
2022-11-01T05:38:24.388Z,6.13
2022-11-01T05:43:30.389Z,9.85
2022-11-01T05:48:38.702Z,7.00
2022-11-01T05:53:44.158Z,6.10
2022-11-01T06:03:56.802Z,6.72
2022-11-01T06:09:04.050Z,4.20
2022-11-01T06:14:09.654Z,8.82
2022-11-01T06:19:15.005Z,8.05
2022-11-01T06:24:20.565Z,5.03
2022-11-01T06:29:25.770Z,6.95
2022-11-01T06:34:31.330Z,10.13
2022-11-01T06:39:36.473Z,7.05
2022-11-01T06:44:45.158Z,6.50
2022-11-01T06:49:51.257Z,6.45
2022-11-01T06:54:56.593Z,5.05
2022-11-01T07:00:10.555Z,3.22
2022-11-01T07:05:18.764Z,4.57
2022-11-01T07:10:27.711Z,6.00
2022-11-01T07:15:36.574Z,3.85
2022-11-01T07:26:04.648Z,11.18
2022-11-01T07:31:10.186Z,3.67
2022-11-01T07:36:20.005Z,6.95
2022-11-01T07:41:27.611Z,8.18
2022-11-01T07:46:43.190Z,4.90
2022-11-01T07:51:50.806Z,5.32
2022-11-01T07:56:56.981Z,7.97
2022-11-01T08:02:05.309Z,10.95
2022-11-01T08:07:13.561Z,4.97
2022-11-01T08:17:23.498Z,9.25
2022-11-01T08:22:29.241Z,6.07
2022-11-01T08:27:35.512Z,9.43
2022-11-01T08:32:41.360Z,6.72
2022-11-01T08:37:53.184Z,5.95
2022-11-01T08:43:01.742Z,7.72
2022-11-01T08:48:08.019Z,9.13
2022-11-01T08:53:15.314Z,8.65
2022-11-01T08:58:23.167Z,9.80
2022-11-01T09:03:29.657Z,11.98
2022-11-01T09:08:35.008Z,8.13
2022-11-01T09:18:49.364Z,4.88
2022-11-01T09:23:54.615Z,6.75
2022-11-01T09:29:00.479Z,7.57
2022-11-01T09:34:06.038Z,7.80
2022-11-01T09:39:11.294Z,14.70
2022-11-01T09:44:18.964Z,10.77
2022-11-01T09:49:26.674Z,10.98
2022-11-01T09:54:32.121Z,10.90
2022-11-01T09:59:46.165Z,9.13
2022-11-01T10:05:06.856Z,9.48
2022-11-01T10:10:37.695Z,7.03
2022-11-01T10:21:15.871Z,12.80
2022-11-01T10:26:24.648Z,16.23
2022-11-01T10:31:30.531Z,11.88
2022-11-01T10:41:54.282Z,11.48
2022-11-01T10:47:01.934Z,14.20
2022-11-01T10:52:12.248Z,18.67
2022-11-01T11:02:43.332Z,22.88
2022-11-01T11:07:48.878Z,18.25
2022-11-01T11:12:56.337Z,18.80
2022-11-01T11:18:05.205Z,20.02
2022-11-01T11:23:14.176Z,20.83
2022-11-01T11:28:28.452Z,22.73
2022-11-01T11:33:33.940Z,23.77
2022-11-01T11:38:44.270Z,23.67
2022-11-01T11:43:50.695Z,21.25
2022-11-01T11:49:06.064Z,24.98
2022-11-01T11:54:13.999Z,19.23
2022-11-01T11:59:27.470Z,20.48
2022-11-01T12:04:53.856Z,25.73
2022-11-01T12:15:29.936Z,28.67
2022-11-01T12:20:45.978Z,25.05
2022-11-01T12:25:52.444Z,28.08
2022-11-01T12:31:02.162Z,26.58
2022-11-01T12:36:09.620Z,32.25
2022-11-01T12:41:31.313Z,32.30
2022-11-01T12:47:02.474Z,25.08
2022-11-01T12:52:31.840Z,26.95
2022-11-01T12:57:37.534Z,28.50
2022-11-01T13:08:22.999Z,33.38
2022-11-01T13:13:54.516Z,31.15
2022-11-01T13:19:06.482Z,30.10
2022-11-01T13:24:29.768Z,36.10
2022-11-01T13:29:48.944Z,38.50
2022-11-01T13:35:03.416Z,32.38
2022-11-01T13:40:08.779Z,38.53
2022-11-01T13:45:29.345Z,47.50
2022-11-01T13:51:01.189Z,34.30
2022-11-01T13:56:09.746Z,29.63
2022-11-01T14:01:38.223Z,45.53
2022-11-01T14:06:44.258Z,32.28
2022-11-01T14:11:52.454Z,40.95
2022-11-01T14:17:19.061Z,38.72
2022-11-01T14:22:29.815Z,50.92
2022-11-01T14:27:38.886Z,42.83
2022-11-01T14:32:48.221Z,49.78
2022-11-01T14:38:08.844Z,54.78
2022-11-01T14:43:20.529Z,61.33
2022-11-01T14:48:40.989Z,55.55
2022-11-01T14:53:48.987Z,60.55
2022-11-01T14:59:13.815Z,62.33
2022-11-01T15:04:24.296Z,68.25
2022-11-01T15:09:33.343Z,64.13
2022-11-01T15:14:43.148Z,65.22
2022-11-01T15:19:49.620Z,68.22
2022-11-01T15:25:00.341Z,64.50
2022-11-01T15:30:06.791Z,68.38
2022-11-01T15:35:23.340Z,70.18
2022-11-01T15:40:31.998Z,66.28
2022-11-01T15:45:40.234Z,85.70
2022-11-01T15:51:06.771Z,66.65
2022-11-01T15:56:19.431Z,69.28
2022-11-01T16:01:26.383Z,77.32
2022-11-01T16:06:39.065Z,81.63
2022-11-01T16:11:44.691Z,80.22
2022-11-01T16:16:59.436Z,79.18
2022-11-01T16:22:05.168Z,75.82
2022-11-01T16:32:22.053Z,71.10
2022-11-01T16:37:29.221Z,66.25
2022-11-01T16:42:34.853Z,77.25
2022-11-01T16:47:39.996Z,77.88
2022-11-01T16:52:45.748Z,68.67
2022-11-01T17:03:01.015Z,76.57
2022-11-01T17:08:06.878Z,85.53
2022-11-01T17:13:12.360Z,72.90
2022-11-01T17:18:23.040Z,78.50
2022-11-01T17:23:30.216Z,72.05
2022-11-01T17:33:40.255Z,73.97
2022-11-01T17:38:46.476Z,75.28
2022-11-01T17:43:52.416Z,78.10
2022-11-01T17:48:57.658Z,79.50
2022-11-01T17:54:03.215Z,77.57
2022-11-01T17:59:10.109Z,76.35
2022-11-01T18:04:15.514Z,80.22
2022-11-01T18:09:25.597Z,78.70
2022-11-01T18:14:49.153Z,68.65
2022-11-01T18:20:11.673Z,69.53
2022-11-01T18:25:19.816Z,67.95
2022-11-01T18:30:25.536Z,63.75
2022-11-01T18:35:37.037Z,62.10
2022-11-01T18:40:48.764Z,64.72
2022-11-01T18:46:19.198Z,65.90
2022-11-01T18:51:24.740Z,62.00
2022-11-01T18:56:29.967Z,65.32
2022-11-01T19:01:35.459Z,58.83
2022-11-01T19:06:40.892Z,57.92
2022-11-01T19:11:46.620Z,78.50
2022-11-01T19:16:52.252Z,76.28
2022-11-01T19:22:06.235Z,80.15
2022-11-01T19:27:23.307Z,69.15
2022-11-01T19:32:30.066Z,47.45
2022-11-01T19:37:37.500Z,49.78
2022-11-01T19:42:52.220Z,62.10
2022-11-01T19:47:58.641Z,64.53
2022-11-01T19:53:04.139Z,66.22
2022-11-01T19:58:26.480Z,66.37
2022-11-01T20:03:45.186Z,72.40
2022-11-01T20:08:54.339Z,73.15
2022-11-01T20:14:01.771Z,67.20
2022-11-01T20:19:06.888Z,64.93
2022-11-01T20:24:12.316Z,59.90
2022-11-01T20:29:17.820Z,42.25
2022-11-01T20:34:22.840Z,48.13
2022-11-01T20:39:28.383Z,37.07
2022-11-01T20:44:33.905Z,68.47
2022-11-01T20:49:38.934Z,60.10
2022-11-01T20:54:44.448Z,62.07
2022-11-01T20:59:52.223Z,53.23
2022-11-01T21:05:01.100Z,53.13
2022-11-01T21:10:27.401Z,61.78
2022-11-01T21:15:35.492Z,46.47
2022-11-01T21:20:44.767Z,55.47
2022-11-01T21:25:59.504Z,53.83
2022-11-01T21:31:13.362Z,53.83
2022-11-01T21:36:29.531Z,36.20
2022-11-01T21:41:41.898Z,46.95
2022-11-01T21:46:53.644Z,52.97
2022-11-01T21:52:04.584Z,44.67
2022-11-01T21:57:10.648Z,39.53
2022-11-01T22:07:23.629Z,36.15
2022-11-01T22:12:29.348Z,43.08
2022-11-01T22:17:34.828Z,41.93
2022-11-01T22:22:40.487Z,38.95
2022-11-01T22:27:45.695Z,37.33
2022-11-01T22:32:51.239Z,39.87
2022-11-01T22:37:57.135Z,42.07
2022-11-01T22:48:12.579Z,40.15
2022-11-01T22:53:19.087Z,37.40
2022-11-01T22:58:35.764Z,36.72
2022-11-01T23:03:44.289Z,39.33
2022-11-01T23:08:50.583Z,39.03
2022-11-01T23:14:14.801Z,36.25
2022-11-01T23:19:20.998Z,36.65
2022-11-01T23:24:27.026Z,32.10
2022-11-01T23:34:38.106Z,32.40
2022-11-01T23:39:43.781Z,36.58
2022-11-01T23:44:52.110Z,25.50
2022-11-01T23:50:03.177Z,24.67
2022-11-01T23:55:12.104Z,32.35
